Fairchem Charger — V7RD4 — position and weather

sailwx.info

Track history (hours):
 
Tides and Currents Weather Stations Pressure Air Temp Water Temp Dewpoint Dewpoint Depression Visibility Wind Speed Wind Dir Waves Ship Positions

Fairchem Charger

Last reported at 2017-Sep-08 23:28 UTC. Time now 2017-Sep-22 11:51 UTC.
Position N 34°33' W 008°06'.
Warning: this ship's position is 13 days out of date.

Length 146 m; draft 8.9 m.

Type: Ship (hazmat cat A). MMSI: 538003481.

Date/timePositionNaut miles runAvg speedWind from/ knotsBaromVisibWave heightAir tempDewpointWater temp
2017-Sep-08 23:28N 34°33' W 008°06'1512.7
2017-Sep-08 22:18N 34°46' W 007°56'412.8
2017-Sep-08 22:00N 34°49' W 007°54'612.7
2017-Sep-08 21:30N 34°55' W 007°50'3111.9
2017-Sep-08 18:56N 35°16' W 007°24'512.0
2017-Sep-08 18:30N 35°18' W 007°18'612.3
2017-Sep-08 18:00N 35°21' W 007°11'612.3
2017-Sep-08 17:30N 35°24' W 007°05'8812.9
2017-Sep-08 10:40N 36°00' W 005°25'211.2
2017-Sep-08 10:30N 36°00' W 005°23'611.4
2017-Sep-08 10:00N 36°02' W 005°16'  
2017-Sep-06 03:37N 37°51' E 009°10'212.7
2017-Sep-06 03:30N 37°51' E 009°12'18512.8
2017-Sep-05 12:59N 36°48' E 012°51'613.1
2017-Sep-05 12:30N 36°46' E 012°58'613.1
2017-Sep-05 12:00N 36°45' E 013°06'612.8
2017-Sep-05 11:30N 36°43' E 013°14'612.6
2017-Sep-05 11:00N 36°40' E 013°21'4412.4
2017-Sep-05 07:27N 36°28' E 014°14'612.5
2017-Sep-05 07:00N 36°26' E 014°20'612.5
2017-Sep-05 06:30N 36°24' E 014°28'612.4
2017-Sep-05 06:00N 36°23' E 014°35'44012.2
2017-Sep-03 17:46N 36°34' E 023°43'1312.6
2017-Sep-03 16:43N 36°41' E 023°57'312.9
2017-Sep-03 16:30N 36°43' E 023°59'713.2
2017-Sep-03 16:00N 36°49' E 024°02'713.5
2017-Sep-03 15:30N 36°56' E 024°05'713.7
2017-Sep-03 15:00N 37°02' E 024°08'1413.8
2017-Sep-03 14:00N 37°15' E 024°14'17513.0
2017-Sep-03 00:35N 39°53' E 025°50'414.5
2017-Sep-03 00:20N 39°56' E 025°53'  
Track history (hours):
 
Tides and Currents Weather Stations Pressure Air Temp Water Temp Dewpoint Dewpoint Depression Visibility Wind Speed Wind Dir Waves Ship Positions

Fairchem Charger

Last reported at 2017-Sep-08 23:28 UTC. Time now 2017-Sep-22 11:51 UTC.
Position N 34°33' W 008°06'.
Warning: this ship's position is 13 days out of date.

Length 146 m; draft 8.9 m.

Type: Ship (hazmat cat A). MMSI: 538003481.

Date/timePositionNaut miles runAvg speedWind from/ knotsBaromVisibWave heightAir tempDewpointWater temp
2017-Sep-08 23:28N 34°33' W 008°06'1512.7
2017-Sep-08 22:18N 34°46' W 007°56'412.8
2017-Sep-08 22:00N 34°49' W 007°54'612.7
2017-Sep-08 21:30N 34°55' W 007°50'3111.9
2017-Sep-08 18:56N 35°16' W 007°24'512.0
2017-Sep-08 18:30N 35°18' W 007°18'612.3
2017-Sep-08 18:00N 35°21' W 007°11'612.3
2017-Sep-08 17:30N 35°24' W 007°05'8812.9
2017-Sep-08 10:40N 36°00' W 005°25'211.2
2017-Sep-08 10:30N 36°00' W 005°23'611.4
2017-Sep-08 10:00N 36°02' W 005°16'  
2017-Sep-06 03:37N 37°51' E 009°10'212.7
2017-Sep-06 03:30N 37°51' E 009°12'18512.8
2017-Sep-05 12:59N 36°48' E 012°51'613.1
2017-Sep-05 12:30N 36°46' E 012°58'613.1
2017-Sep-05 12:00N 36°45' E 013°06'612.8
2017-Sep-05 11:30N 36°43' E 013°14'612.6
2017-Sep-05 11:00N 36°40' E 013°21'4412.4
2017-Sep-05 07:27N 36°28' E 014°14'612.5
2017-Sep-05 07:00N 36°26' E 014°20'612.5
2017-Sep-05 06:30N 36°24' E 014°28'612.4
2017-Sep-05 06:00N 36°23' E 014°35'44012.2
2017-Sep-03 17:46N 36°34' E 023°43'1312.6
2017-Sep-03 16:43N 36°41' E 023°57'312.9
2017-Sep-03 16:30N 36°43' E 023°59'713.2
2017-Sep-03 16:00N 36°49' E 024°02'713.5
2017-Sep-03 15:30N 36°56' E 024°05'713.7
2017-Sep-03 15:00N 37°02' E 024°08'1413.8
2017-Sep-03 14:00N 37°15' E 024°14'17513.0
2017-Sep-03 00:35N 39°53' E 025°50'414.5
2017-Sep-03 00:20N 39°56' E 025°53'  

Dump ship's entire track history